sensor_id;sensor_type;location;lat;lon;timestamp;P1;durP1;ratioP1;P2;durP2;ratioP2
37905;SDS011;23739;51.448;6.674;2023-04-10T00:00:29;8.70;;;6.10;;
37905;SDS011;23739;51.448;6.674;2023-04-10T00:02:56;7.15;;;5.25;;
37905;SDS011;23739;51.448;6.674;2023-04-10T00:05:23;8.25;;;5.38;;
37905;SDS011;23739;51.448;6.674;2023-04-10T00:07:49;8.45;;;5.82;;
37905;SDS011;23739;51.448;6.674;2023-04-10T00:10:15;7.93;;;6.18;;
37905;SDS011;23739;51.448;6.674;2023-04-10T00:12:41;9.00;;;6.18;;
37905;SDS011;23739;51.448;6.674;2023-04-10T00:15:08;8.30;;;5.90;;
37905;SDS011;23739;51.448;6.674;2023-04-10T00:17:34;9.55;;;6.07;;
37905;SDS011;23739;51.448;6.674;2023-04-10T00:20:00;8.93;;;5.82;;
37905;SDS011;23739;51.448;6.674;2023-04-10T00:22:26;7.75;;;5.80;;
37905;SDS011;23739;51.448;6.674;2023-04-10T00:24:52;8.23;;;5.50;;
37905;SDS011;23739;51.448;6.674;2023-04-10T00:27:18;7.63;;;5.90;;
37905;SDS011;23739;51.448;6.674;2023-04-10T00:29:44;9.32;;;6.35;;
37905;SDS011;23739;51.448;6.674;2023-04-10T00:32:10;9.57;;;6.22;;
37905;SDS011;23739;51.448;6.674;2023-04-10T00:34:37;8.65;;;5.90;;
37905;SDS011;23739;51.448;6.674;2023-04-10T00:37:03;7.70;;;5.30;;
37905;SDS011;23739;51.448;6.674;2023-04-10T00:39:29;10.88;;;7.00;;
37905;SDS011;23739;51.448;6.674;2023-04-10T00:41:55;7.68;;;6.15;;
37905;SDS011;23739;51.448;6.674;2023-04-10T00:44:21;7.57;;;5.82;;
37905;SDS011;23739;51.448;6.674;2023-04-10T00:46:47;8.55;;;6.65;;
37905;SDS011;23739;51.448;6.674;2023-04-10T00:49:13;9.10;;;6.05;;
37905;SDS011;23739;51.448;6.674;2023-04-10T00:51:42;11.00;;;6.57;;
37905;SDS011;23739;51.448;6.674;2023-04-10T00:54:09;8.27;;;6.30;;
37905;SDS011;23739;51.448;6.674;2023-04-10T00:56:36;8.85;;;5.57;;
37905;SDS011;23739;51.448;6.674;2023-04-10T00:59:02;8.45;;;5.95;;
37905;SDS011;23739;51.448;6.674;2023-04-10T01:01:28;8.35;;;6.32;;
37905;SDS011;23739;51.448;6.674;2023-04-10T01:03:54;12.23;;;6.53;;
37905;SDS011;23739;51.448;6.674;2023-04-10T01:09:10;9.13;;;5.65;;
37905;SDS011;23739;51.448;6.674;2023-04-10T01:11:50;11.60;;;6.50;;
37905;SDS011;23739;51.448;6.674;2023-04-10T01:17:03;9.13;;;6.38;;
37905;SDS011;23739;51.448;6.674;2023-04-10T01:22:16;13.10;;;6.43;;
37905;SDS011;23739;51.448;6.674;2023-04-10T01:29:43;8.05;;;5.68;;
37905;SDS011;23739;51.448;6.674;2023-04-10T01:32:12;8.35;;;6.15;;
37905;SDS011;23739;51.448;6.674;2023-04-10T01:34:39;8.23;;;6.75;;
37905;SDS011;23739;51.448;6.674;2023-04-10T01:37:14;7.75;;;5.68;;
37905;SDS011;23739;51.448;6.674;2023-04-10T01:39:41;8.68;;;5.22;;
37905;SDS011;23739;51.448;6.674;2023-04-10T01:42:08;7.88;;;6.10;;
37905;SDS011;23739;51.448;6.674;2023-04-10T01:44:37;6.82;;;5.65;;
37905;SDS011;23739;51.448;6.674;2023-04-10T01:47:05;7.95;;;5.80;;
37905;SDS011;23739;51.448;6.674;2023-04-10T01:49:33;8.55;;;6.18;;
37905;SDS011;23739;51.448;6.674;2023-04-10T01:52:06;8.30;;;5.55;;
37905;SDS011;23739;51.448;6.674;2023-04-10T01:54:32;8.68;;;6.15;;
37905;SDS011;23739;51.448;6.674;2023-04-10T01:56:58;7.40;;;5.25;;
37905;SDS011;23739;51.448;6.674;2023-04-10T01:59:26;7.60;;;5.93;;
37905;SDS011;23739;51.448;6.674;2023-04-10T02:01:56;9.27;;;5.90;;
37905;SDS011;23739;51.448;6.674;2023-04-10T02:04:22;8.20;;;5.88;;
37905;SDS011;23739;51.448;6.674;2023-04-10T02:06:57;8.35;;;6.10;;
37905;SDS011;23739;51.448;6.674;2023-04-10T02:12:21;8.40;;;5.93;;
37905;SDS011;23739;51.448;6.674;2023-04-10T02:14:48;8.00;;;6.43;;
37905;SDS011;23739;51.448;6.674;2023-04-10T02:17:16;8.70;;;6.45;;
37905;SDS011;23739;51.448;6.674;2023-04-10T02:19:44;7.07;;;5.57;;
37905;SDS011;23739;51.448;6.674;2023-04-10T02:22:12;7.50;;;5.97;;
37905;SDS011;23739;51.448;6.674;2023-04-10T02:24:38;9.98;;;6.25;;
37905;SDS011;23739;51.448;6.674;2023-04-10T02:27:04;8.13;;;5.95;;
37905;SDS011;23739;51.448;6.674;2023-04-10T02:29:30;7.35;;;6.05;;
37905;SDS011;23739;51.448;6.674;2023-04-10T02:31:56;8.20;;;5.90;;
37905;SDS011;23739;51.448;6.674;2023-04-10T02:34:22;9.73;;;7.43;;
37905;SDS011;23739;51.448;6.674;2023-04-10T02:36:48;8.85;;;6.13;;
37905;SDS011;23739;51.448;6.674;2023-04-10T02:39:15;8.48;;;5.75;;
37905;SDS011;23739;51.448;6.674;2023-04-10T02:41:41;8.40;;;6.30;;
37905;SDS011;23739;51.448;6.674;2023-04-10T02:44:07;9.88;;;5.82;;
37905;SDS011;23739;51.448;6.674;2023-04-10T02:46:33;8.82;;;6.47;;
37905;SDS011;23739;51.448;6.674;2023-04-10T02:48:59;8.80;;;6.28;;
37905;SDS011;23739;51.448;6.674;2023-04-10T02:51:25;9.00;;;6.53;;
37905;SDS011;23739;51.448;6.674;2023-04-10T02:53:51;8.73;;;6.55;;
37905;SDS011;23739;51.448;6.674;2023-04-10T02:56:17;9.35;;;6.47;;
37905;SDS011;23739;51.448;6.674;2023-04-10T02:58:43;9.02;;;6.18;;
37905;SDS011;23739;51.448;6.674;2023-04-10T03:01:11;9.75;;;7.20;;
37905;SDS011;23739;51.448;6.674;2023-04-10T03:03:37;8.50;;;6.90;;
37905;SDS011;23739;51.448;6.674;2023-04-10T03:06:04;8.00;;;6.13;;
37905;SDS011;23739;51.448;6.674;2023-04-10T03:08:30;7.43;;;6.40;;
37905;SDS011;23739;51.448;6.674;2023-04-10T03:10:56;7.85;;;6.15;;
37905;SDS011;23739;51.448;6.674;2023-04-10T03:13:22;10.57;;;7.18;;
37905;SDS011;23739;51.448;6.674;2023-04-10T03:15:48;9.73;;;6.68;;
37905;SDS011;23739;51.448;6.674;2023-04-10T03:18:14;8.68;;;6.32;;
37905;SDS011;23739;51.448;6.674;2023-04-10T03:20:40;8.35;;;6.20;;
37905;SDS011;23739;51.448;6.674;2023-04-10T03:23:06;7.75;;;5.95;;
37905;SDS011;23739;51.448;6.674;2023-04-10T03:25:33;8.52;;;5.93;;
37905;SDS011;23739;51.448;6.674;2023-04-10T03:27:59;8.45;;;6.72;;
37905;SDS011;23739;51.448;6.674;2023-04-10T03:30:25;8.07;;;6.00;;
37905;SDS011;23739;51.448;6.674;2023-04-10T03:32:51;7.93;;;6.35;;
37905;SDS011;23739;51.448;6.674;2023-04-10T03:35:17;8.05;;;5.97;;
37905;SDS011;23739;51.448;6.674;2023-04-10T03:37:44;9.25;;;6.35;;
37905;SDS011;23739;51.448;6.674;2023-04-10T03:40:10;9.40;;;6.38;;
37905;SDS011;23739;51.448;6.674;2023-04-10T03:42:36;11.23;;;6.90;;
37905;SDS011;23739;51.448;6.674;2023-04-10T03:45:03;9.07;;;6.55;;
37905;SDS011;23739;51.448;6.674;2023-04-10T03:47:30;8.82;;;6.35;;
37905;SDS011;23739;51.448;6.674;2023-04-10T03:49:56;8.40;;;6.30;;
37905;SDS011;23739;51.448;6.674;2023-04-10T03:52:25;6.88;;;5.30;;
37905;SDS011;23739;51.448;6.674;2023-04-10T03:54:52;8.13;;;6.30;;
37905;SDS011;23739;51.448;6.674;2023-04-10T03:57:18;8.23;;;6.45;;
37905;SDS011;23739;51.448;6.674;2023-04-10T03:59:46;7.78;;;6.03;;
37905;SDS011;23739;51.448;6.674;2023-04-10T04:02:12;9.95;;;5.97;;
37905;SDS011;23739;51.448;6.674;2023-04-10T04:04:38;8.95;;;6.60;;
37905;SDS011;23739;51.448;6.674;2023-04-10T04:07:04;6.90;;;5.53;;
37905;SDS011;23739;51.448;6.674;2023-04-10T04:09:31;7.43;;;5.82;;
37905;SDS011;23739;51.448;6.674;2023-04-10T04:11:57;7.88;;;5.78;;
37905;SDS011;23739;51.448;6.674;2023-04-10T04:14:23;8.13;;;6.22;;
37905;SDS011;23739;51.448;6.674;2023-04-10T04:16:49;7.15;;;5.97;;
37905;SDS011;23739;51.448;6.674;2023-04-10T04:19:15;8.68;;;6.13;;
37905;SDS011;23739;51.448;6.674;2023-04-10T04:21:41;9.30;;;6.32;;
37905;SDS011;23739;51.448;6.674;2023-04-10T04:24:07;8.63;;;6.13;;
37905;SDS011;23739;51.448;6.674;2023-04-10T04:26:33;8.45;;;5.65;;
37905;SDS011;23739;51.448;6.674;2023-04-10T04:29:00;8.38;;;5.78;;
37905;SDS011;23739;51.448;6.674;2023-04-10T04:31:26;10.30;;;6.85;;
37905;SDS011;23739;51.448;6.674;2023-04-10T04:33:56;8.75;;;6.35;;
37905;SDS011;23739;51.448;6.674;2023-04-10T04:36:22;8.32;;;5.75;;
37905;SDS011;23739;51.448;6.674;2023-04-10T04:38:49;9.23;;;6.60;;
37905;SDS011;23739;51.448;6.674;2023-04-10T04:41:15;8.90;;;6.28;;
37905;SDS011;23739;51.448;6.674;2023-04-10T04:43:41;8.45;;;6.82;;
37905;SDS011;23739;51.448;6.674;2023-04-10T04:46:07;7.95;;;6.05;;
37905;SDS011;23739;51.448;6.674;2023-04-10T04:48:34;9.23;;;6.20;;
37905;SDS011;23739;51.448;6.674;2023-04-10T04:51:00;9.50;;;6.38;;
37905;SDS011;23739;51.448;6.674;2023-04-10T04:53:26;9.98;;;6.03;;
37905;SDS011;23739;51.448;6.674;2023-04-10T04:55:52;9.48;;;6.90;;
37905;SDS011;23739;51.448;6.674;2023-04-10T04:58:19;11.20;;;6.55;;
37905;SDS011;23739;51.448;6.674;2023-04-10T05:00:45;9.32;;;5.43;;
37905;SDS011;23739;51.448;6.674;2023-04-10T05:03:11;7.63;;;5.72;;
37905;SDS011;23739;51.448;6.674;2023-04-10T05:05:37;6.63;;;5.57;;
37905;SDS011;23739;51.448;6.674;2023-04-10T05:08:03;8.32;;;6.32;;
37905;SDS011;23739;51.448;6.674;2023-04-10T05:10:30;8.52;;;5.68;;
37905;SDS011;23739;51.448;6.674;2023-04-10T05:12:56;8.60;;;6.15;;
37905;SDS011;23739;51.448;6.674;2023-04-10T05:15:22;8.48;;;6.40;;
37905;SDS011;23739;51.448;6.674;2023-04-10T05:17:48;7.68;;;6.25;;
37905;SDS011;23739;51.448;6.674;2023-04-10T05:20:17;8.50;;;6.20;;
37905;SDS011;23739;51.448;6.674;2023-04-10T05:22:45;7.57;;;5.90;;
37905;SDS011;23739;51.448;6.674;2023-04-10T05:25:11;8.70;;;6.40;;
37905;SDS011;23739;51.448;6.674;2023-04-10T05:27:38;8.55;;;5.93;;
37905;SDS011;23739;51.448;6.674;2023-04-10T05:30:04;9.07;;;5.75;;
37905;SDS011;23739;51.448;6.674;2023-04-10T05:32:30;8.35;;;5.88;;
37905;SDS011;23739;51.448;6.674;2023-04-10T05:34:56;7.30;;;6.25;;
37905;SDS011;23739;51.448;6.674;2023-04-10T05:37:23;7.97;;;6.28;;
37905;SDS011;23739;51.448;6.674;2023-04-10T05:39:49;8.10;;;5.78;;
37905;SDS011;23739;51.448;6.674;2023-04-10T05:42:15;8.57;;;7.18;;
37905;SDS011;23739;51.448;6.674;2023-04-10T05:44:41;8.20;;;6.32;;
37905;SDS011;23739;51.448;6.674;2023-04-10T05:47:07;9.27;;;6.38;;
37905;SDS011;23739;51.448;6.674;2023-04-10T05:49:33;7.60;;;5.75;;
37905;SDS011;23739;51.448;6.674;2023-04-10T05:52:00;7.45;;;5.93;;
37905;SDS011;23739;51.448;6.674;2023-04-10T05:54:26;7.47;;;5.82;;
37905;SDS011;23739;51.448;6.674;2023-04-10T05:56:52;10.55;;;6.30;;
37905;SDS011;23739;51.448;6.674;2023-04-10T05:59:18;9.63;;;6.78;;
37905;SDS011;23739;51.448;6.674;2023-04-10T06:01:44;7.72;;;5.45;;
37905;SDS011;23739;51.448;6.674;2023-04-10T06:04:12;10.27;;;7.07;;
37905;SDS011;23739;51.448;6.674;2023-04-10T06:10:00;7.32;;;5.88;;
37905;SDS011;23739;51.448;6.674;2023-04-10T06:12:26;8.45;;;6.50;;
37905;SDS011;23739;51.448;6.674;2023-04-10T06:26:53;8.35;;;6.07;;
37905;SDS011;23739;51.448;6.674;2023-04-10T06:35:27;10.55;;;6.05;;
37905;SDS011;23739;51.448;6.674;2023-04-10T06:37:54;9.93;;;6.65;;
37905;SDS011;23739;51.448;6.674;2023-04-10T06:40:20;7.05;;;5.72;;
37905;SDS011;23739;51.448;6.674;2023-04-10T06:42:46;8.55;;;5.53;;
37905;SDS011;23739;51.448;6.674;2023-04-10T06:45:12;8.15;;;5.57;;
37905;SDS011;23739;51.448;6.674;2023-04-10T06:47:38;7.05;;;4.60;;
37905;SDS011;23739;51.448;6.674;2023-04-10T06:50:04;7.93;;;6.07;;
37905;SDS011;23739;51.448;6.674;2023-04-10T06:52:31;6.60;;;5.35;;
37905;SDS011;23739;51.448;6.674;2023-04-10T06:54:57;7.18;;;5.85;;
37905;SDS011;23739;51.448;6.674;2023-04-10T06:57:23;6.28;;;5.20;;
37905;SDS011;23739;51.448;6.674;2023-04-10T06:59:49;8.52;;;5.20;;
37905;SDS011;23739;51.448;6.674;2023-04-10T07:02:15;8.52;;;5.40;;
37905;SDS011;23739;51.448;6.674;2023-04-10T07:04:41;5.93;;;5.18;;
37905;SDS011;23739;51.448;6.674;2023-04-10T07:07:07;10.52;;;6.38;;
37905;SDS011;23739;51.448;6.674;2023-04-10T07:09:36;7.90;;;6.00;;
37905;SDS011;23739;51.448;6.674;2023-04-10T07:12:02;10.05;;;5.97;;
37905;SDS011;23739;51.448;6.674;2023-04-10T07:14:28;7.05;;;5.40;;
37905;SDS011;23739;51.448;6.674;2023-04-10T07:16:55;8.27;;;5.50;;
37905;SDS011;23739;51.448;6.674;2023-04-10T07:19:21;7.63;;;6.05;;
37905;SDS011;23739;51.448;6.674;2023-04-10T07:21:47;8.25;;;5.57;;
37905;SDS011;23739;51.448;6.674;2023-04-10T07:24:16;7.82;;;5.47;;
37905;SDS011;23739;51.448;6.674;2023-04-10T07:26:45;6.90;;;5.70;;
37905;SDS011;23739;51.448;6.674;2023-04-10T07:29:11;10.32;;;6.55;;
37905;SDS011;23739;51.448;6.674;2023-04-10T07:31:38;8.43;;;5.85;;
37905;SDS011;23739;51.448;6.674;2023-04-10T07:34:04;6.97;;;5.53;;
37905;SDS011;23739;51.448;6.674;2023-04-10T07:36:31;9.70;;;6.60;;
37905;SDS011;23739;51.448;6.674;2023-04-10T07:38:57;7.10;;;5.70;;
37905;SDS011;23739;51.448;6.674;2023-04-10T07:41:23;8.25;;;5.85;;
37905;SDS011;23739;51.448;6.674;2023-04-10T07:43:49;9.27;;;6.88;;
37905;SDS011;23739;51.448;6.674;2023-04-10T07:46:16;7.38;;;6.13;;
37905;SDS011;23739;51.448;6.674;2023-04-10T07:48:42;8.95;;;4.60;;
37905;SDS011;23739;51.448;6.674;2023-04-10T07:51:08;8.63;;;6.28;;
37905;SDS011;23739;51.448;6.674;2023-04-10T07:53:35;8.93;;;5.75;;
37905;SDS011;23739;51.448;6.674;2023-04-10T07:56:01;6.72;;;5.22;;
37905;SDS011;23739;51.448;6.674;2023-04-10T07:58:27;8.32;;;5.57;;
37905;SDS011;23739;51.448;6.674;2023-04-10T08:00:53;8.63;;;6.25;;
37905;SDS011;23739;51.448;6.674;2023-04-10T08:03:19;9.35;;;6.13;;
37905;SDS011;23739;51.448;6.674;2023-04-10T08:05:47;6.32;;;5.05;;
37905;SDS011;23739;51.448;6.674;2023-04-10T08:08:13;6.35;;;4.68;;
37905;SDS011;23739;51.448;6.674;2023-04-10T08:10:39;7.47;;;4.78;;
37905;SDS011;23739;51.448;6.674;2023-04-10T08:13:05;8.05;;;4.90;;
37905;SDS011;23739;51.448;6.674;2023-04-10T08:15:32;12.10;;;6.07;;
37905;SDS011;23739;51.448;6.674;2023-04-10T08:17:58;7.90;;;5.70;;
37905;SDS011;23739;51.448;6.674;2023-04-10T08:20:24;6.80;;;5.65;;
37905;SDS011;23739;51.448;6.674;2023-04-10T08:22:50;8.52;;;6.00;;
37905;SDS011;23739;51.448;6.674;2023-04-10T08:25:16;9.45;;;6.30;;
37905;SDS011;23739;51.448;6.674;2023-04-10T08:27:43;8.55;;;6.03;;
37905;SDS011;23739;51.448;6.674;2023-04-10T08:30:09;8.52;;;6.35;;
37905;SDS011;23739;51.448;6.674;2023-04-10T08:32:35;10.02;;;6.60;;
37905;SDS011;23739;51.448;6.674;2023-04-10T08:35:01;9.23;;;6.38;;
37905;SDS011;23739;51.448;6.674;2023-04-10T08:37:27;8.65;;;6.22;;
37905;SDS011;23739;51.448;6.674;2023-04-10T08:39:53;11.10;;;7.60;;
37905;SDS011;23739;51.448;6.674;2023-04-10T08:42:20;9.52;;;6.22;;
37905;SDS011;23739;51.448;6.674;2023-04-10T08:44:47;7.97;;;5.10;;
37905;SDS011;23739;51.448;6.674;2023-04-10T08:47:14;8.93;;;5.00;;
37905;SDS011;23739;51.448;6.674;2023-04-10T08:49:59;7.28;;;4.60;;
37905;SDS011;23739;51.448;6.674;2023-04-10T08:52:28;8.18;;;6.03;;
37905;SDS011;23739;51.448;6.674;2023-04-10T08:54:55;8.48;;;6.10;;
37905;SDS011;23739;51.448;6.674;2023-04-10T08:57:22;12.27;;;6.75;;
37905;SDS011;23739;51.448;6.674;2023-04-10T08:59:51;11.45;;;6.78;;
37905;SDS011;23739;51.448;6.674;2023-04-10T09:02:17;11.02;;;6.55;;
37905;SDS011;23739;51.448;6.674;2023-04-10T09:04:47;12.50;;;6.72;;
37905;SDS011;23739;51.448;6.674;2023-04-10T09:07:16;9.40;;;6.00;;
37905;SDS011;23739;51.448;6.674;2023-04-10T09:09:43;7.55;;;5.15;;
37905;SDS011;23739;51.448;6.674;2023-04-10T09:12:11;7.05;;;4.80;;
37905;SDS011;23739;51.448;6.674;2023-04-10T09:14:38;9.63;;;5.85;;
37905;SDS011;23739;51.448;6.674;2023-04-10T09:17:20;7.70;;;5.18;;
37905;SDS011;23739;51.448;6.674;2023-04-10T09:22:13;5.43;;;4.45;;
37905;SDS011;23739;51.448;6.674;2023-04-10T09:24:41;6.68;;;4.53;;
37905;SDS011;23739;51.448;6.674;2023-04-10T09:27:08;9.00;;;4.50;;
37905;SDS011;23739;51.448;6.674;2023-04-10T09:29:44;5.28;;;4.55;;
37905;SDS011;23739;51.448;6.674;2023-04-10T09:32:13;7.13;;;3.97;;
37905;SDS011;23739;51.448;6.674;2023-04-10T09:34:54;4.85;;;4.10;;
37905;SDS011;23739;51.448;6.674;2023-04-10T09:37:29;6.53;;;4.95;;
37905;SDS011;23739;51.448;6.674;2023-04-10T09:39:55;6.63;;;4.13;;
37905;SDS011;23739;51.448;6.674;2023-04-10T09:42:35;5.40;;;4.55;;
37905;SDS011;23739;51.448;6.674;2023-04-10T09:45:02;5.07;;;4.18;;
37905;SDS011;23739;51.448;6.674;2023-04-10T09:47:28;4.15;;;3.70;;
37905;SDS011;23739;51.448;6.674;2023-04-10T09:49:58;4.15;;;3.75;;
37905;SDS011;23739;51.448;6.674;2023-04-10T09:54:56;5.70;;;4.32;;
37905;SDS011;23739;51.448;6.674;2023-04-10T09:57:23;4.78;;;4.20;;
37905;SDS011;23739;51.448;6.674;2023-04-10T09:59:54;6.93;;;4.05;;
37905;SDS011;23739;51.448;6.674;2023-04-10T10:02:24;4.40;;;4.00;;
37905;SDS011;23739;51.448;6.674;2023-04-10T10:04:51;7.85;;;3.00;;
37905;SDS011;23739;51.448;6.674;2023-04-10T10:07:19;5.97;;;4.43;;
37905;SDS011;23739;51.448;6.674;2023-04-10T10:09:46;5.90;;;3.88;;
37905;SDS011;23739;51.448;6.674;2023-04-10T10:12:14;6.22;;;4.03;;
37905;SDS011;23739;51.448;6.674;2023-04-10T10:15:06;5.65;;;4.15;;
37905;SDS011;23739;51.448;6.674;2023-04-10T10:17:29;4.93;;;3.70;;
37905;SDS011;23739;51.448;6.674;2023-04-10T10:20:01;6.28;;;4.10;;
37905;SDS011;23739;51.448;6.674;2023-04-10T10:22:28;5.55;;;3.35;;
37905;SDS011;23739;51.448;6.674;2023-04-10T10:24:54;4.20;;;3.65;;
37905;SDS011;23739;51.448;6.674;2023-04-10T10:27:24;5.60;;;3.75;;
37905;SDS011;23739;51.448;6.674;2023-04-10T10:29:52;6.22;;;4.47;;
37905;SDS011;23739;51.448;6.674;2023-04-10T10:32:20;5.43;;;4.00;;
37905;SDS011;23739;51.448;6.674;2023-04-10T10:34:46;4.25;;;3.00;;
37905;SDS011;23739;51.448;6.674;2023-04-10T10:37:12;4.72;;;3.70;;
37905;SDS011;23739;51.448;6.674;2023-04-10T10:42:11;6.28;;;4.55;;
37905;SDS011;23739;51.448;6.674;2023-04-10T10:47:08;9.40;;;3.67;;
37905;SDS011;23739;51.448;6.674;2023-04-10T10:57:49;4.75;;;3.90;;
37905;SDS011;23739;51.448;6.674;2023-04-10T11:00:16;4.55;;;3.58;;
37905;SDS011;23739;51.448;6.674;2023-04-10T11:02:42;5.35;;;3.70;;
37905;SDS011;23739;51.448;6.674;2023-04-10T11:05:09;4.15;;;3.35;;
37905;SDS011;23739;51.448;6.674;2023-04-10T11:10:54;3.65;;;3.17;;
37905;SDS011;23739;51.448;6.674;2023-04-10T11:13:23;3.90;;;3.10;;
37905;SDS011;23739;51.448;6.674;2023-04-10T11:15:56;5.75;;;4.00;;
37905;SDS011;23739;51.448;6.674;2023-04-10T11:21:07;5.15;;;3.60;;
37905;SDS011;23739;51.448;6.674;2023-04-10T11:23:34;4.75;;;3.30;;
37905;SDS011;23739;51.448;6.674;2023-04-10T11:26:01;5.03;;;3.28;;
37905;SDS011;23739;51.448;6.674;2023-04-10T11:31:33;4.78;;;3.08;;
37905;SDS011;23739;51.448;6.674;2023-04-10T11:36:18;2.60;;;2.40;;
37905;SDS011;23739;51.448;6.674;2023-04-10T11:41:29;3.92;;;3.47;;
37905;SDS011;23739;51.448;6.674;2023-04-10T11:43:58;5.32;;;3.58;;
37905;SDS011;23739;51.448;6.674;2023-04-10T11:46:25;4.43;;;3.88;;
37905;SDS011;23739;51.448;6.674;2023-04-10T11:48:53;4.75;;;3.05;;
37905;SDS011;23739;51.448;6.674;2023-04-10T11:51:20;3.85;;;3.00;;
37905;SDS011;23739;51.448;6.674;2023-04-10T11:53:46;5.53;;;3.28;;
37905;SDS011;23739;51.448;6.674;2023-04-10T11:56:18;3.45;;;3.00;;
37905;SDS011;23739;51.448;6.674;2023-04-10T11:58:49;4.22;;;3.40;;
37905;SDS011;23739;51.448;6.674;2023-04-10T12:01:19;4.88;;;3.67;;
37905;SDS011;23739;51.448;6.674;2023-04-10T12:03:45;3.42;;;3.13;;
37905;SDS011;23739;51.448;6.674;2023-04-10T12:06:12;2.65;;;2.33;;
37905;SDS011;23739;51.448;6.674;2023-04-10T12:08:40;3.80;;;3.00;;
37905;SDS011;23739;51.448;6.674;2023-04-10T12:11:07;3.33;;;2.88;;
37905;SDS011;23739;51.448;6.674;2023-04-10T12:13:33;4.32;;;2.85;;
37905;SDS011;23739;51.448;6.674;2023-04-10T12:16:01;8.50;;;3.83;;
37905;SDS011;23739;51.448;6.674;2023-04-10T12:18:28;4.85;;;3.15;;
37905;SDS011;23739;51.448;6.674;2023-04-10T12:20:55;4.93;;;3.28;;
37905;SDS011;23739;51.448;6.674;2023-04-10T12:23:25;6.75;;;4.43;;
37905;SDS011;23739;51.448;6.674;2023-04-10T12:25:52;7.45;;;4.38;;
37905;SDS011;23739;51.448;6.674;2023-04-10T12:28:19;7.50;;;5.15;;
37905;SDS011;23739;51.448;6.674;2023-04-10T12:30:47;5.47;;;3.85;;
37905;SDS011;23739;51.448;6.674;2023-04-10T12:33:13;7.45;;;4.43;;
37905;SDS011;23739;51.448;6.674;2023-04-10T12:35:39;4.57;;;3.58;;
37905;SDS011;23739;51.448;6.674;2023-04-10T12:38:09;4.78;;;2.90;;
37905;SDS011;23739;51.448;6.674;2023-04-10T12:40:35;6.78;;;3.47;;
37905;SDS011;23739;51.448;6.674;2023-04-10T12:43:02;4.07;;;3.30;;
37905;SDS011;23739;51.448;6.674;2023-04-10T12:45:49;4.07;;;2.90;;
37905;SDS011;23739;51.448;6.674;2023-04-10T12:48:21;4.15;;;3.42;;
37905;SDS011;23739;51.448;6.674;2023-04-10T12:50:47;7.75;;;2.80;;
37905;SDS011;23739;51.448;6.674;2023-04-10T12:53:17;3.20;;;2.88;;
37905;SDS011;23739;51.448;6.674;2023-04-10T12:56:03;3.63;;;2.70;;
37905;SDS011;23739;51.448;6.674;2023-04-10T12:58:30;6.32;;;2.67;;
37905;SDS011;23739;51.448;6.674;2023-04-10T13:01:03;3.40;;;2.50;;
37905;SDS011;23739;51.448;6.674;2023-04-10T13:03:30;4.20;;;2.72;;
37905;SDS011;23739;51.448;6.674;2023-04-10T13:05:58;3.25;;;2.95;;
37905;SDS011;23739;51.448;6.674;2023-04-10T13:08:24;4.00;;;3.15;;
37905;SDS011;23739;51.448;6.674;2023-04-10T13:10:51;3.63;;;2.72;;
37905;SDS011;23739;51.448;6.674;2023-04-10T13:13:17;2.92;;;2.63;;
37905;SDS011;23739;51.448;6.674;2023-04-10T13:15:43;3.30;;;3.00;;
37905;SDS011;23739;51.448;6.674;2023-04-10T13:18:09;3.55;;;3.20;;
37905;SDS011;23739;51.448;6.674;2023-04-10T13:20:36;3.40;;;2.72;;
37905;SDS011;23739;51.448;6.674;2023-04-10T13:23:03;3.20;;;2.45;;
37905;SDS011;23739;51.448;6.674;2023-04-10T13:25:30;2.70;;;2.30;;
37905;SDS011;23739;51.448;6.674;2023-04-10T13:27:57;5.15;;;2.55;;
37905;SDS011;23739;51.448;6.674;2023-04-10T13:30:24;2.92;;;2.53;;
37905;SDS011;23739;51.448;6.674;2023-04-10T13:32:50;6.75;;;2.47;;
37905;SDS011;23739;51.448;6.674;2023-04-10T13:35:16;3.03;;;2.40;;
37905;SDS011;23739;51.448;6.674;2023-04-10T13:37:42;2.78;;;2.45;;
37905;SDS011;23739;51.448;6.674;2023-04-10T13:40:10;3.35;;;2.55;;
37905;SDS011;23739;51.448;6.674;2023-04-10T13:42:36;4.20;;;2.60;;
37905;SDS011;23739;51.448;6.674;2023-04-10T13:45:02;3.72;;;2.55;;
37905;SDS011;23739;51.448;6.674;2023-04-10T13:47:29;3.38;;;2.50;;
37905;SDS011;23739;51.448;6.674;2023-04-10T13:49:55;2.78;;;2.28;;
37905;SDS011;23739;51.448;6.674;2023-04-10T13:52:21;2.92;;;2.45;;
37905;SDS011;23739;51.448;6.674;2023-04-10T13:54:47;3.13;;;2.38;;
37905;SDS011;23739;51.448;6.674;2023-04-10T13:57:13;2.63;;;2.22;;
37905;SDS011;23739;51.448;6.674;2023-04-10T13:59:39;2.50;;;2.03;;
37905;SDS011;23739;51.448;6.674;2023-04-10T14:02:05;2.67;;;2.42;;
37905;SDS011;23739;51.448;6.674;2023-04-10T14:04:33;2.45;;;2.08;;
37905;SDS011;23739;51.448;6.674;2023-04-10T14:06:59;2.00;;;1.80;;
37905;SDS011;23739;51.448;6.674;2023-04-10T14:09:26;1.73;;;1.60;;
37905;SDS011;23739;51.448;6.674;2023-04-10T14:11:52;2.55;;;1.83;;
37905;SDS011;23739;51.448;6.674;2023-04-10T14:14:19;2.05;;;1.90;;
37905;SDS011;23739;51.448;6.674;2023-04-10T14:16:48;2.55;;;1.70;;
37905;SDS011;23739;51.448;6.674;2023-04-10T14:19:15;3.58;;;1.77;;
37905;SDS011;23739;51.448;6.674;2023-04-10T14:21:41;4.22;;;2.00;;
37905;SDS011;23739;51.448;6.674;2023-04-10T14:24:08;2.28;;;1.65;;
37905;SDS011;23739;51.448;6.674;2023-04-10T14:26:35;2.58;;;1.80;;
37905;SDS011;23739;51.448;6.674;2023-04-10T14:29:01;1.80;;;1.50;;
37905;SDS011;23739;51.448;6.674;2023-04-10T14:31:27;1.52;;;1.38;;
37905;SDS011;23739;51.448;6.674;2023-04-10T14:33:54;1.52;;;1.30;;
37905;SDS011;23739;51.448;6.674;2023-04-10T14:36:20;1.95;;;1.67;;
37905;SDS011;23739;51.448;6.674;2023-04-10T14:38:46;5.03;;;1.50;;
37905;SDS011;23739;51.448;6.674;2023-04-10T14:41:12;3.70;;;1.40;;
37905;SDS011;23739;51.448;6.674;2023-04-10T14:43:39;2.15;;;1.75;;
37905;SDS011;23739;51.448;6.674;2023-04-10T14:46:08;2.67;;;1.77;;
37905;SDS011;23739;51.448;6.674;2023-04-10T14:48:34;1.80;;;1.52;;
37905;SDS011;23739;51.448;6.674;2023-04-10T14:51:00;2.97;;;2.00;;
37905;SDS011;23739;51.448;6.674;2023-04-10T14:53:28;1.95;;;1.50;;
37905;SDS011;23739;51.448;6.674;2023-04-10T14:55:54;2.00;;;1.70;;
37905;SDS011;23739;51.448;6.674;2023-04-10T14:58:20;1.67;;;1.38;;
37905;SDS011;23739;51.448;6.674;2023-04-10T15:00:46;2.22;;;1.83;;
37905;SDS011;23739;51.448;6.674;2023-04-10T15:03:14;2.33;;;1.58;;
37905;SDS011;23739;51.448;6.674;2023-04-10T15:05:40;5.55;;;2.03;;
37905;SDS011;23739;51.448;6.674;2023-04-10T15:08:06;2.67;;;1.92;;
37905;SDS011;23739;51.448;6.674;2023-04-10T15:10:32;2.03;;;1.83;;
37905;SDS011;23739;51.448;6.674;2023-04-10T15:12:58;2.10;;;1.75;;
37905;SDS011;23739;51.448;6.674;2023-04-10T15:15:25;3.25;;;1.90;;
37905;SDS011;23739;51.448;6.674;2023-04-10T15:17:51;2.33;;;1.58;;
37905;SDS011;23739;51.448;6.674;2023-04-10T15:20:17;1.90;;;1.70;;
37905;SDS011;23739;51.448;6.674;2023-04-10T15:22:43;2.88;;;2.30;;
37905;SDS011;23739;51.448;6.674;2023-04-10T15:25:12;1.92;;;1.67;;
37905;SDS011;23739;51.448;6.674;2023-04-10T15:27:38;1.85;;;1.65;;
37905;SDS011;23739;51.448;6.674;2023-04-10T15:30:05;2.00;;;1.60;;
37905;SDS011;23739;51.448;6.674;2023-04-10T15:32:31;2.90;;;2.15;;
37905;SDS011;23739;51.448;6.674;2023-04-10T15:34:57;2.20;;;1.65;;
37905;SDS011;23739;51.448;6.674;2023-04-10T15:37:23;3.50;;;1.98;;
37905;SDS011;23739;51.448;6.674;2023-04-10T15:39:49;2.30;;;1.92;;
37905;SDS011;23739;51.448;6.674;2023-04-10T15:42:16;2.05;;;1.67;;
37905;SDS011;23739;51.448;6.674;2023-04-10T15:44:44;3.97;;;2.53;;
37905;SDS011;23739;51.448;6.674;2023-04-10T15:47:11;2.42;;;1.95;;
37905;SDS011;23739;51.448;6.674;2023-04-10T15:49:37;2.33;;;1.80;;
37905;SDS011;23739;51.448;6.674;2023-04-10T15:52:04;2.03;;;1.83;;
37905;SDS011;23739;51.448;6.674;2023-04-10T15:54:31;1.95;;;1.75;;
37905;SDS011;23739;51.448;6.674;2023-04-10T15:56:57;6.05;;;2.10;;